sensor_id;sensor_type;location;lat;lon;timestamp;pressure;altitude;pressure_sealevel;temperature;humidity
69855;BME280;57146;48.140;16.304;2022-10-17T00:00:47;100339.63;;;9.86;100.00
69855;BME280;57146;48.140;16.304;2022-10-17T00:03:14;100334.31;;;10.01;100.00
69855;BME280;57146;48.140;16.304;2022-10-17T00:05:44;100333.78;;;9.99;100.00
69855;BME280;57146;48.140;16.304;2022-10-17T00:08:13;100328.31;;;9.90;100.00
69855;BME280;57146;48.140;16.304;2022-10-17T00:10:41;100337.78;;;9.81;100.00
69855;BME280;57146;48.140;16.304;2022-10-17T00:13:08;100331.25;;;9.73;100.00
69855;BME280;57146;48.140;16.304;2022-10-17T00:15:35;100327.31;;;9.71;100.00
69855;BME280;57146;48.140;16.304;2022-10-17T00:18:02;100331.28;;;9.63;100.00
69855;BME280;57146;48.140;16.304;2022-10-17T00:20:29;100336.28;;;9.59;100.00
69855;BME280;57146;48.140;16.304;2022-10-17T00:22:56;100332.06;;;9.64;100.00
69855;BME280;57146;48.140;16.304;2022-10-17T00:25:23;100339.16;;;9.63;100.00
69855;BME280;57146;48.140;16.304;2022-10-17T00:27:49;100337.63;;;9.57;100.00
69855;BME280;57146;48.140;16.304;2022-10-17T00:30:17;100337.81;;;9.71;100.00
69855;BME280;57146;48.140;16.304;2022-10-17T00:32:44;100342.00;;;9.82;100.00
69855;BME280;57146;48.140;16.304;2022-10-17T00:35:11;100341.47;;;9.90;100.00
69855;BME280;57146;48.140;16.304;2022-10-17T00:37:38;100344.34;;;9.89;100.00
69855;BME280;57146;48.140;16.304;2022-10-17T00:40:06;100354.59;;;9.85;100.00
69855;BME280;57146;48.140;16.304;2022-10-17T00:42:33;100353.81;;;9.84;100.00
69855;BME280;57146;48.140;16.304;2022-10-17T00:45:21;100347.22;;;9.92;100.00
69855;BME280;57146;48.140;16.304;2022-10-17T00:48:05;100344.41;;;9.78;100.00
69855;BME280;57146;48.140;16.304;2022-10-17T00:50:35;100341.78;;;9.68;100.00
69855;BME280;57146;48.140;16.304;2022-10-17T00:53:07;100337.84;;;9.66;100.00
69855;BME280;57146;48.140;16.304;2022-10-17T00:55:38;100342.34;;;9.55;100.00
69855;BME280;57146;48.140;16.304;2022-10-17T00:58:08;100338.41;;;9.57;100.00
69855;BME280;57146;48.140;16.304;2022-10-17T01:00:35;100336.28;;;9.49;100.00
69855;BME280;57146;48.140;16.304;2022-10-17T01:03:03;100337.09;;;9.50;100.00
69855;BME280;57146;48.140;16.304;2022-10-17T01:05:31;100340.75;;;9.59;100.00
69855;BME280;57146;48.140;16.304;2022-10-17T01:07:59;100337.63;;;9.47;100.00
69855;BME280;57146;48.140;16.304;2022-10-17T01:10:32;100337.88;;;9.45;100.00
69855;BME280;57146;48.140;16.304;2022-10-17T01:13:39;100339.75;;;9.40;100.00
69855;BME280;57146;48.140;16.304;2022-10-17T01:18:57;100341.59;;;9.24;100.00
69855;BME280;57146;48.140;16.304;2022-10-17T01:21:52;100336.59;;;9.27;100.00
69855;BME280;57146;48.140;16.304;2022-10-17T01:32:33;100321.63;;;9.23;100.00
69855;BME280;57146;48.140;16.304;2022-10-17T01:35:20;100322.66;;;9.27;100.00
69855;BME280;57146;48.140;16.304;2022-10-17T01:37:58;100319.00;;;9.18;100.00
69855;BME280;57146;48.140;16.304;2022-10-17T01:40:34;100321.88;;;9.26;100.00
69855;BME280;57146;48.140;16.304;2022-10-17T01:45:50;100308.72;;;9.37;100.00
69855;BME280;57146;48.140;16.304;2022-10-17T01:48:22;100315.28;;;9.44;100.00
69855;BME280;57146;48.140;16.304;2022-10-17T01:50:53;100314.22;;;9.50;100.00
69855;BME280;57146;48.140;16.304;2022-10-17T01:53:36;100314.75;;;9.42;100.00
69855;BME280;57146;48.140;16.304;2022-10-17T01:56:07;100313.22;;;9.36;100.00
69855;BME280;57146;48.140;16.304;2022-10-17T01:58:40;100319.75;;;9.49;100.00
69855;BME280;57146;48.140;16.304;2022-10-17T02:01:11;100313.44;;;9.55;100.00
69855;BME280;57146;48.140;16.304;2022-10-17T02:03:41;100311.31;;;9.57;100.00
69855;BME280;57146;48.140;16.304;2022-10-17T02:06:09;100311.38;;;9.37;100.00
69855;BME280;57146;48.140;16.304;2022-10-17T02:08:48;100314.81;;;9.22;100.00
69855;BME280;57146;48.140;16.304;2022-10-17T02:11:17;100312.19;;;9.11;100.00
69855;BME280;57146;48.140;16.304;2022-10-17T02:20:04;100299.31;;;9.00;100.00
69855;BME280;57146;48.140;16.304;2022-10-17T02:22:40;100307.47;;;8.98;100.00
69855;BME280;57146;48.140;16.304;2022-10-17T02:31:16;100304.56;;;8.84;100.00
69855;BME280;57146;48.140;16.304;2022-10-17T02:34:00;100316.63;;;8.85;100.00
69855;BME280;57146;48.140;16.304;2022-10-17T02:36:32;100311.41;;;9.01;100.00
69855;BME280;57146;48.140;16.304;2022-10-17T02:39:02;100318.75;;;8.83;100.00
69855;BME280;57146;48.140;16.304;2022-10-17T02:41:32;100314.53;;;8.87;100.00
69855;BME280;57146;48.140;16.304;2022-10-17T02:44:01;100320.31;;;8.95;100.00
69855;BME280;57146;48.140;16.304;2022-10-17T02:46:30;100325.56;;;8.79;100.00
69855;BME280;57146;48.140;16.304;2022-10-17T02:49:22;100324.78;;;8.69;100.00
69855;BME280;57146;48.140;16.304;2022-10-17T02:52:11;100324.25;;;8.67;100.00
69855;BME280;57146;48.140;16.304;2022-10-17T02:54:46;100320.84;;;8.61;100.00
69855;BME280;57146;48.140;16.304;2022-10-17T02:59:47;100325.56;;;8.54;100.00
69855;BME280;57146;48.140;16.304;2022-10-17T03:02:16;100323.94;;;8.48;100.00
69855;BME280;57146;48.140;16.304;2022-10-17T03:04:45;100329.47;;;8.51;100.00
69855;BME280;57146;48.140;16.304;2022-10-17T03:07:12;100330.78;;;8.44;100.00
69855;BME280;57146;48.140;16.304;2022-10-17T03:09:39;100337.31;;;8.41;100.00
69855;BME280;57146;48.140;16.304;2022-10-17T03:12:06;100341.25;;;8.38;100.00
69855;BME280;57146;48.140;16.304;2022-10-17T03:14:34;100334.91;;;8.34;100.00
69855;BME280;57146;48.140;16.304;2022-10-17T03:17:02;100332.00;;;8.36;100.00
69855;BME280;57146;48.140;16.304;2022-10-17T03:19:29;100341.53;;;8.52;100.00
69855;BME280;57146;48.140;16.304;2022-10-17T03:21:56;100339.69;;;8.53;100.00
69855;BME280;57146;48.140;16.304;2022-10-17T03:24:24;100347.53;;;8.43;100.00
69855;BME280;57146;48.140;16.304;2022-10-17T03:26:52;100345.72;;;8.43;100.00
69855;BME280;57146;48.140;16.304;2022-10-17T03:29:19;100351.22;;;8.42;100.00
69855;BME280;57146;48.140;16.304;2022-10-17T03:31:46;100354.91;;;8.41;100.00
69855;BME280;57146;48.140;16.304;2022-10-17T03:34:13;100352.78;;;8.37;100.00
69855;BME280;57146;48.140;16.304;2022-10-17T03:36:40;100356.50;;;8.47;100.00
69855;BME280;57146;48.140;16.304;2022-10-17T03:39:07;100358.81;;;8.38;100.00
69855;BME280;57146;48.140;16.304;2022-10-17T03:41:34;100364.31;;;8.36;100.00
69855;BME280;57146;48.140;16.304;2022-10-17T03:44:01;100360.09;;;8.35;100.00
69855;BME280;57146;48.140;16.304;2022-10-17T03:46:29;100369.06;;;8.45;100.00
69855;BME280;57146;48.140;16.304;2022-10-17T03:48:58;100371.09;;;8.27;100.00
69855;BME280;57146;48.140;16.304;2022-10-17T03:51:25;100370.53;;;8.25;100.00
69855;BME280;57146;48.140;16.304;2022-10-17T03:53:59;100371.63;;;8.29;100.00
69855;BME280;57146;48.140;16.304;2022-10-17T03:56:26;100378.00;;;8.44;100.00
69855;BME280;57146;48.140;16.304;2022-10-17T03:59:06;100379.34;;;8.51;100.00
69855;BME280;57146;48.140;16.304;2022-10-17T04:01:37;100383.19;;;8.33;100.00
69855;BME280;57146;48.140;16.304;2022-10-17T04:04:04;100381.59;;;8.32;100.00
69855;BME280;57146;48.140;16.304;2022-10-17T04:06:34;100380.50;;;8.23;100.00
69855;BME280;57146;48.140;16.304;2022-10-17T04:09:02;100387.88;;;8.31;100.00
69855;BME280;57146;48.140;16.304;2022-10-17T04:11:52;100381.31;;;8.29;100.00
69855;BME280;57146;48.140;16.304;2022-10-17T04:14:20;100388.66;;;8.27;100.00
69855;BME280;57146;48.140;16.304;2022-10-17T04:16:47;100391.13;;;8.44;100.00
69855;BME280;57146;48.140;16.304;2022-10-17T04:19:19;100391.31;;;8.37;100.00
69855;BME280;57146;48.140;16.304;2022-10-17T04:21:46;100386.59;;;8.34;100.00
69855;BME280;57146;48.140;16.304;2022-10-17T04:24:14;100390.31;;;8.38;100.00
69855;BME280;57146;48.140;16.304;2022-10-17T04:26:51;100387.16;;;8.46;100.00
69855;BME280;57146;48.140;16.304;2022-10-17T04:29:21;100392.16;;;8.43;100.00
69855;BME280;57146;48.140;16.304;2022-10-17T04:31:50;100387.44;;;8.45;100.00
69855;BME280;57146;48.140;16.304;2022-10-17T04:34:43;100389.25;;;8.39;100.00
69855;BME280;57146;48.140;16.304;2022-10-17T04:37:10;100405.31;;;8.48;100.00
69855;BME280;57146;48.140;16.304;2022-10-17T04:39:37;100397.38;;;8.37;100.00
69855;BME280;57146;48.140;16.304;2022-10-17T04:42:04;100404.28;;;8.54;100.00
69855;BME280;57146;48.140;16.304;2022-10-17T04:44:31;100408.09;;;8.36;100.00
69855;BME280;57146;48.140;16.304;2022-10-17T04:46:58;100406.59;;;8.40;100.00
69855;BME280;57146;48.140;16.304;2022-10-17T04:49:25;100408.16;;;8.41;100.00
69855;BME280;57146;48.140;16.304;2022-10-17T04:51:57;100409.09;;;8.25;100.00
69855;BME280;57146;48.140;16.304;2022-10-17T04:54:36;100407.75;;;8.17;100.00
69855;BME280;57146;48.140;16.304;2022-10-17T04:57:08;100404.63;;;8.15;100.00
69855;BME280;57146;48.140;16.304;2022-10-17T04:59:37;100410.38;;;8.17;100.00
69855;BME280;57146;48.140;16.304;2022-10-17T05:02:27;100415.63;;;8.17;100.00
69855;BME280;57146;48.140;16.304;2022-10-17T05:04:55;100424.00;;;8.09;100.00
69855;BME280;57146;48.140;16.304;2022-10-17T05:07:23;100427.69;;;8.13;100.00
69855;BME280;57146;48.140;16.304;2022-10-17T05:09:57;100429.72;;;8.01;100.00
69855;BME280;57146;48.140;16.304;2022-10-17T05:12:25;100438.94;;;8.13;100.00
69855;BME280;57146;48.140;16.304;2022-10-17T05:14:52;100432.09;;;8.07;100.00
69855;BME280;57146;48.140;16.304;2022-10-17T05:17:20;100437.88;;;8.09;100.00
69855;BME280;57146;48.140;16.304;2022-10-17T05:19:48;100437.59;;;8.01;100.00
69855;BME280;57146;48.140;16.304;2022-10-17T05:22:15;100444.13;;;7.98;100.00
69855;BME280;57146;48.140;16.304;2022-10-17T05:24:42;100442.59;;;8.07;100.00
69855;BME280;57146;48.140;16.304;2022-10-17T05:27:10;100451.22;;;7.98;100.00
69855;BME280;57146;48.140;16.304;2022-10-17T05:29:36;100454.06;;;7.96;100.00
69855;BME280;57146;48.140;16.304;2022-10-17T05:32:14;100454.31;;;7.95;100.00
69855;BME280;57146;48.140;16.304;2022-10-17T05:34:42;100453.56;;;7.99;100.00
69855;BME280;57146;48.140;16.304;2022-10-17T05:37:10;100454.91;;;8.02;100.00
69855;BME280;57146;48.140;16.304;2022-10-17T05:39:38;100462.72;;;7.97;100.00
69855;BME280;57146;48.140;16.304;2022-10-17T05:42:06;100464.09;;;8.04;100.00
69855;BME280;57146;48.140;16.304;2022-10-17T05:44:34;100469.09;;;8.11;100.00
69855;BME280;57146;48.140;16.304;2022-10-17T05:47:01;100469.94;;;8.16;100.00
69855;BME280;57146;48.140;16.304;2022-10-17T05:49:28;100478.63;;;8.22;100.00
69855;BME280;57146;48.140;16.304;2022-10-17T05:52:15;100486.78;;;8.26;100.00
69855;BME280;57146;48.140;16.304;2022-10-17T05:55:05;100483.38;;;8.30;100.00
69855;BME280;57146;48.140;16.304;2022-10-17T05:57:32;100489.69;;;8.34;100.00
69855;BME280;57146;48.140;16.304;2022-10-17T06:00:00;100490.78;;;8.38;100.00
69855;BME280;57146;48.140;16.304;2022-10-17T06:02:39;100491.06;;;8.42;100.00
69855;BME280;57146;48.140;16.304;2022-10-17T06:05:08;100491.34;;;8.41;100.00
69855;BME280;57146;48.140;16.304;2022-10-17T06:07:35;100492.66;;;8.43;100.00
69855;BME280;57146;48.140;16.304;2022-10-17T06:10:04;100492.66;;;8.43;100.00
69855;BME280;57146;48.140;16.304;2022-10-17T06:12:31;100496.88;;;8.49;100.00
69855;BME280;57146;48.140;16.304;2022-10-17T06:14:59;100493.50;;;8.54;100.00
69855;BME280;57146;48.140;16.304;2022-10-17T06:17:25;100506.09;;;8.57;100.00
69855;BME280;57146;48.140;16.304;2022-10-17T06:19:52;100504.03;;;8.64;100.00
69855;BME280;57146;48.140;16.304;2022-10-17T06:22:19;100511.94;;;8.69;100.00
69855;BME280;57146;48.140;16.304;2022-10-17T06:24:46;100508.53;;;8.74;100.00
69855;BME280;57146;48.140;16.304;2022-10-17T06:27:14;100509.09;;;8.81;100.00
69855;BME280;57146;48.140;16.304;2022-10-17T06:29:41;100509.91;;;8.86;100.00
69855;BME280;57146;48.140;16.304;2022-10-17T06:32:09;100515.16;;;8.92;100.00
69855;BME280;57146;48.140;16.304;2022-10-17T06:34:42;100525.69;;;8.97;100.00
69855;BME280;57146;48.140;16.304;2022-10-17T06:37:09;100522.06;;;9.08;100.00
69855;BME280;57146;48.140;16.304;2022-10-17T06:39:38;100523.13;;;9.17;100.00
69855;BME280;57146;48.140;16.304;2022-10-17T06:42:14;100536.78;;;9.24;100.00
69855;BME280;57146;48.140;16.304;2022-10-17T06:44:47;100534.19;;;9.29;100.00
69855;BME280;57146;48.140;16.304;2022-10-17T06:47:20;100544.97;;;9.38;100.00
69855;BME280;57146;48.140;16.304;2022-10-17T06:49:48;100546.03;;;9.47;100.00
69855;BME280;57146;48.140;16.304;2022-10-17T06:52:30;100549.47;;;9.58;100.00
69855;BME280;57146;48.140;16.304;2022-10-17T06:55:26;100544.50;;;9.72;100.00
69855;BME280;57146;48.140;16.304;2022-10-17T06:58:15;100545.81;;;9.90;100.00
69855;BME280;57146;48.140;16.304;2022-10-17T07:01:08;100545.78;;;10.05;100.00
69855;BME280;57146;48.140;16.304;2022-10-17T07:03:36;100547.63;;;10.15;100.00
69855;BME280;57146;48.140;16.304;2022-10-17T07:06:04;100559.19;;;10.24;100.00
69855;BME280;57146;48.140;16.304;2022-10-17T07:08:32;100562.38;;;10.36;100.00
69855;BME280;57146;48.140;16.304;2022-10-17T07:11:11;100561.25;;;10.52;100.00
69855;BME280;57146;48.140;16.304;2022-10-17T07:13:40;100564.69;;;10.58;100.00
69855;BME280;57146;48.140;16.304;2022-10-17T07:16:08;100567.28;;;10.63;100.00
69855;BME280;57146;48.140;16.304;2022-10-17T07:18:38;100566.47;;;10.78;100.00
69855;BME280;57146;48.140;16.304;2022-10-17T07:21:06;100575.66;;;10.86;100.00
69855;BME280;57146;48.140;16.304;2022-10-17T07:23:35;100573.00;;;10.91;100.00
69855;BME280;57146;48.140;16.304;2022-10-17T07:26:06;100569.78;;;11.04;100.00
69855;BME280;57146;48.140;16.304;2022-10-17T07:28:36;100564.47;;;11.14;100.00
69855;BME280;57146;48.140;16.304;2022-10-17T07:31:16;100568.38;;;11.22;100.00
69855;BME280;57146;48.140;16.304;2022-10-17T07:33:44;100563.31;;;11.31;100.00
69855;BME280;57146;48.140;16.304;2022-10-17T07:36:12;100563.00;;;11.42;100.00
69855;BME280;57146;48.140;16.304;2022-10-17T07:38:40;100564.78;;;11.52;100.00
69855;BME280;57146;48.140;16.304;2022-10-17T07:41:09;100566.06;;;11.60;100.00
69855;BME280;57146;48.140;16.304;2022-10-17T07:43:37;100564.63;;;11.72;100.00
69855;BME280;57146;48.140;16.304;2022-10-17T07:46:06;100547.72;;;11.79;100.00
69855;BME280;57146;48.140;16.304;2022-10-17T07:48:33;100554.50;;;11.90;100.00
69855;BME280;57146;48.140;16.304;2022-10-17T07:51:02;100563.41;;;11.99;100.00
69855;BME280;57146;48.140;16.304;2022-10-17T07:53:29;100564.91;;;12.10;100.00
69855;BME280;57146;48.140;16.304;2022-10-17T07:55:56;100572.50;;;12.17;100.00
69855;BME280;57146;48.140;16.304;2022-10-17T07:58:23;100571.34;;;12.28;100.00
69855;BME280;57146;48.140;16.304;2022-10-17T08:00:50;100567.28;;;12.36;100.00
69855;BME280;57146;48.140;16.304;2022-10-17T08:03:17;100565.88;;;12.43;100.00
69855;BME280;57146;48.140;16.304;2022-10-17T08:05:44;100563.19;;;12.49;100.00
69855;BME280;57146;48.140;16.304;2022-10-17T08:08:11;100564.69;;;12.60;100.00
69855;BME280;57146;48.140;16.304;2022-10-17T08:10:37;100565.69;;;12.64;100.00
69855;BME280;57146;48.140;16.304;2022-10-17T08:13:04;100571.69;;;12.69;100.00
69855;BME280;57146;48.140;16.304;2022-10-17T08:15:31;100582.44;;;12.78;100.00
69855;BME280;57146;48.140;16.304;2022-10-17T08:17:58;100576.72;;;12.90;100.00
69855;BME280;57146;48.140;16.304;2022-10-17T08:20:25;100593.00;;;13.02;100.00
69855;BME280;57146;48.140;16.304;2022-10-17T08:22:55;100588.41;;;13.08;100.00
69855;BME280;57146;48.140;16.304;2022-10-17T08:25:22;100582.78;;;13.14;100.00
69855;BME280;57146;48.140;16.304;2022-10-17T08:27:49;100590.63;;;13.19;99.59
69855;BME280;57146;48.140;16.304;2022-10-17T08:30:16;100584.25;;;13.26;99.54
69855;BME280;57146;48.140;16.304;2022-10-17T08:32:43;100587.84;;;13.35;99.69
69855;BME280;57146;48.140;16.304;2022-10-17T08:35:09;100584.53;;;13.43;97.73
69855;BME280;57146;48.140;16.304;2022-10-17T08:37:36;100585.84;;;13.46;97.88
69855;BME280;57146;48.140;16.304;2022-10-17T08:40:03;100586.53;;;13.51;97.71
69855;BME280;57146;48.140;16.304;2022-10-17T08:42:59;100585.91;;;13.59;97.83
69855;BME280;57146;48.140;16.304;2022-10-17T08:45:53;100584.25;;;13.63;97.29
69855;BME280;57146;48.140;16.304;2022-10-17T08:48:23;100585.25;;;13.68;96.83
69855;BME280;57146;48.140;16.304;2022-10-17T08:50:55;100584.88;;;13.74;96.18
69855;BME280;57146;48.140;16.304;2022-10-17T08:53:29;100581.28;;;13.84;95.26
69855;BME280;57146;48.140;16.304;2022-10-17T08:56:03;100575.41;;;13.87;94.27
69855;BME280;57146;48.140;16.304;2022-10-17T08:58:37;100576.69;;;13.89;95.67
69855;BME280;57146;48.140;16.304;2022-10-17T09:01:25;100580.06;;;13.95;95.38
69855;BME280;57146;48.140;16.304;2022-10-17T09:09:27;100581.94;;;14.08;96.28
69855;BME280;57146;48.140;16.304;2022-10-17T09:12:21;100591.38;;;14.14;94.54
69855;BME280;57146;48.140;16.304;2022-10-17T09:18:17;100582.47;;;14.24;95.26
69855;BME280;57146;48.140;16.304;2022-10-17T09:20:54;100589.25;;;14.30;95.01
69855;BME280;57146;48.140;16.304;2022-10-17T09:23:42;100586.81;;;14.34;94.98
69855;BME280;57146;48.140;16.304;2022-10-17T09:26:11;100578.25;;;14.37;94.70
69855;BME280;57146;48.140;16.304;2022-10-17T09:28:40;100587.03;;;14.51;95.13
69855;BME280;57146;48.140;16.304;2022-10-17T09:31:15;100587.84;;;14.52;95.27
69855;BME280;57146;48.140;16.304;2022-10-17T09:33:47;100586.44;;;14.54;95.43
69855;BME280;57146;48.140;16.304;2022-10-17T09:36:25;100584.00;;;14.58;94.72
69855;BME280;57146;48.140;16.304;2022-10-17T09:38:57;100596.88;;;14.65;94.90
69855;BME280;57146;48.140;16.304;2022-10-17T09:41:33;100582.72;;;14.83;94.11
69855;BME280;57146;48.140;16.304;2022-10-17T09:44:17;100591.47;;;14.83;94.18
69855;BME280;57146;48.140;16.304;2022-10-17T09:49:21;100585.09;;;14.98;94.65
69855;BME280;57146;48.140;16.304;2022-10-17T09:51:51;100582.63;;;15.02;94.37
69855;BME280;57146;48.140;16.304;2022-10-17T09:57:19;100581.19;;;15.18;95.45
69855;BME280;57146;48.140;16.304;2022-10-17T09:59:56;100584.31;;;15.34;96.02
69855;BME280;57146;48.140;16.304;2022-10-17T10:02:25;100577.06;;;15.62;93.99
69855;BME280;57146;48.140;16.304;2022-10-17T10:07:36;100576.06;;;15.94;92.07
69855;BME280;57146;48.140;16.304;2022-10-17T10:10:23;100572.84;;;16.06;90.54
69855;BME280;57146;48.140;16.304;2022-10-17T10:13:16;100575.66;;;16.10;90.77
69855;BME280;57146;48.140;16.304;2022-10-17T10:15:45;100570.22;;;16.15;90.35
69855;BME280;57146;48.140;16.304;2022-10-17T10:18:30;100569.41;;;16.37;87.92
69855;BME280;57146;48.140;16.304;2022-10-17T10:23:35;100571.53;;;16.66;87.28
69855;BME280;57146;48.140;16.304;2022-10-17T10:26:04;100563.00;;;16.86;84.90
69855;BME280;57146;48.140;16.304;2022-10-17T10:28:35;100566.28;;;16.83;85.82
69855;BME280;57146;48.140;16.304;2022-10-17T10:31:05;100561.91;;;16.87;85.93
69855;BME280;57146;48.140;16.304;2022-10-17T10:33:39;100554.44;;;17.15;84.01
69855;BME280;57146;48.140;16.304;2022-10-17T10:36:07;100556.00;;;17.34;82.49
69855;BME280;57146;48.140;16.304;2022-10-17T10:38:38;100548.03;;;17.34;83.27
69855;BME280;57146;48.140;16.304;2022-10-17T10:41:10;100537.53;;;17.37;82.40
69855;BME280;57146;48.140;16.304;2022-10-17T10:43:41;100540.19;;;17.46;81.67
69855;BME280;57146;48.140;16.304;2022-10-17T10:46:23;100538.16;;;17.43;82.46
69855;BME280;57146;48.140;16.304;2022-10-17T10:48:59;100538.16;;;17.52;83.17
69855;BME280;57146;48.140;16.304;2022-10-17T10:54:19;100532.34;;;17.67;82.82
69855;BME280;57146;48.140;16.304;2022-10-17T10:56:52;100522.63;;;17.80;80.13
69855;BME280;57146;48.140;16.304;2022-10-17T10:59:32;100520.25;;;17.87;79.02
69855;BME280;57146;48.140;16.304;2022-10-17T11:04:57;100529.31;;;17.94;78.60
69855;BME280;57146;48.140;16.304;2022-10-17T11:10:50;100524.91;;;18.07;76.11
69855;BME280;57146;48.140;16.304;2022-10-17T11:13:23;100522.84;;;18.13;77.29
69855;BME280;57146;48.140;16.304;2022-10-17T11:18:50;100513.56;;;18.19;76.52
69855;BME280;57146;48.140;16.304;2022-10-17T11:21:40;100521.94;;;18.38;75.04
69855;BME280;57146;48.140;16.304;2022-10-17T11:24:21;100517.66;;;18.46;74.57
69855;BME280;57146;48.140;16.304;2022-10-17T11:26:54;100505.91;;;18.47;74.96
69855;BME280;57146;48.140;16.304;2022-10-17T11:29:29;100495.06;;;18.52;74.48
69855;BME280;57146;48.140;16.304;2022-10-17T11:32:02;100507.81;;;18.76;72.85
69855;BME280;57146;48.140;16.304;2022-10-17T11:34:35;100498.56;;;18.74;73.24
69855;BME280;57146;48.140;16.304;2022-10-17T11:37:19;100497.00;;;18.73;73.94
69855;BME280;57146;48.140;16.304;2022-10-17T11:39:54;100490.94;;;18.84;72.49
69855;BME280;57146;48.140;16.304;2022-10-17T11:42:39;100492.91;;;18.96;72.09
69855;BME280;57146;48.140;16.304;2022-10-17T11:45:17;100491.22;;;18.92;72.57
69855;BME280;57146;48.140;16.304;2022-10-17T11:47:49;100487.97;;;19.07;71.29
69855;BME280;57146;48.140;16.304;2022-10-17T11:50:30;100482.16;;;19.05;72.69
69855;BME280;57146;48.140;16.304;2022-10-17T11:53:24;100488.41;;;19.09;71.26
69855;BME280;57146;48.140;16.304;2022-10-17T11:55:57;100483.06;;;19.09;71.39
69855;BME280;57146;48.140;16.304;2022-10-17T11:58:37;100474.56;;;19.28;69.37
69855;BME280;57146;48.140;16.304;2022-10-17T12:01:15;100473.91;;;19.31;70.13
69855;BME280;57146;48.140;16.304;2022-10-17T12:07:17;100467.41;;;19.41;69.92
69855;BME280;57146;48.140;16.304;2022-10-17T12:12:25;100469.97;;;19.49;69.09
69855;BME280;57146;48.140;16.304;2022-10-17T12:18:02;100463.44;;;19.59;67.90
69855;BME280;57146;48.140;16.304;2022-10-17T12:20:37;100464.09;;;19.56;67.76
69855;BME280;57146;48.140;16.304;2022-10-17T12:25:48;100462.50;;;19.76;66.84
69855;BME280;57146;48.140;16.304;2022-10-17T12:28:45;100458.03;;;19.80;66.45
69855;BME280;57146;48.140;16.304;2022-10-17T12:34:02;100459.28;;;19.95;65.36
69855;BME280;57146;48.140;16.304;2022-10-17T12:49:48;100448.81;;;20.02;64.04
69855;BME280;57146;48.140;16.304;2022-10-17T12:58:01;100447.13;;;20.09;62.82
69855;BME280;57146;48.140;16.304;2022-10-17T13:00:52;100458.38;;;20.15;62.55
69855;BME280;57146;48.140;16.304;2022-10-17T13:03:42;100451.38;;;20.23;62.46
69855;BME280;57146;48.140;16.304;2022-10-17T13:06:22;100452.13;;;20.23;62.24
69855;BME280;57146;48.140;16.304;2022-10-17T13:08:57;100457.84;;;20.22;62.51
69855;BME280;57146;48.140;16.304;2022-10-17T13:11:31;100450.59;;;20.22;62.03
69855;BME280;57146;48.140;16.304;2022-10-17T13:14:01;100454.38;;;20.21;62.32
69855;BME280;57146;48.140;16.304;2022-10-17T13:16:34;100448.94;;;20.18;62.30
69855;BME280;57146;48.140;16.304;2022-10-17T13:19:14;100447.47;;;20.32;61.15
69855;BME280;57146;48.140;16.304;2022-10-17T13:21:55;100452.16;;;20.36;61.07
69855;BME280;57146;48.140;16.304;2022-10-17T13:24:33;100447.88;;;20.34;61.26
69855;BME280;57146;48.140;16.304;2022-10-17T13:27:01;100446.78;;;20.36;60.97
69855;BME280;57146;48.140;16.304;2022-10-17T13:29:29;100445.56;;;20.33;61.16
69855;BME280;57146;48.140;16.304;2022-10-17T13:32:01;100442.00;;;20.29;61.58
69855;BME280;57146;48.140;16.304;2022-10-17T13:34:30;100433.88;;;20.25;61.16
69855;BME280;57146;48.140;16.304;2022-10-17T13:37:03;100435.44;;;20.26;60.93
69855;BME280;57146;48.140;16.304;2022-10-17T13:39:39;100441.13;;;20.25;60.65
69855;BME280;57146;48.140;16.304;2022-10-17T13:42:38;100440.47;;;20.28;60.17
69855;BME280;57146;48.140;16.304;2022-10-17T13:45:33;100438.88;;;20.27;60.17
69855;BME280;57146;48.140;16.304;2022-10-17T13:48:02;100437.78;;;20.28;60.00
69855;BME280;57146;48.140;16.304;2022-10-17T13:50:33;100432.31;;;20.37;59.38
69855;BME280;57146;48.140;16.304;2022-10-17T13:53:34;100436.41;;;20.34;60.10
69855;BME280;57146;48.140;16.304;2022-10-17T13:56:05;100441.88;;;20.38;59.25
69855;BME280;57146;48.140;16.304;2022-10-17T13:58:56;100440.69;;;20.35;59.49
69855;BME280;57146;48.140;16.304;2022-10-17T14:01:26;100429.53;;;20.33;59.75
69855;BME280;57146;48.140;16.304;2022-10-17T14:03:54;100430.28;;;20.33;59.74
69855;BME280;57146;48.140;16.304;2022-10-17T14:06:41;100433.31;;;20.32;58.96
69855;BME280;57146;48.140;16.304;2022-10-17T14:09:22;100434.19;;;20.36;58.74
69855;BME280;57146;48.140;16.304;2022-10-17T14:12:09;100432.53;;;20.31;59.75
69855;BME280;57146;48.140;16.304;2022-10-17T14:14:38;100436.00;;;20.32;59.61
69855;BME280;57146;48.140;16.304;2022-10-17T14:17:26;100445.81;;;20.28;60.24
69855;BME280;57146;48.140;16.304;2022-10-17T14:19:57;100446.13;;;20.26;59.26
69855;BME280;57146;48.140;16.304;2022-10-17T14:22:45;100443.25;;;20.31;58.58
69855;BME280;57146;48.140;16.304;2022-10-17T14:25:33;100441.56;;;20.27;60.33
69855;BME280;57146;48.140;16.304;2022-10-17T14:30:39;100434.56;;;20.22;59.21
69855;BME280;57146;48.140;16.304;2022-10-17T14:33:27;100436.78;;;20.20;59.81
69855;BME280;57146;48.140;16.304;2022-10-17T14:35:56;100436.78;;;20.20;59.68
69855;BME280;57146;48.140;16.304;2022-10-17T14:38:25;100435.09;;;20.16;59.34
69855;BME280;57146;48.140;16.304;2022-10-17T14:41:02;100430.88;;;20.15;59.74
69855;BME280;57146;48.140;16.304;2022-10-17T14:43:57;100437.00;;;20.15;58.93